createdAt,value
2022-12-09T00:00:34.525Z,47.50
2022-12-09T00:02:41.855Z,47.50
2022-12-09T00:04:46.736Z,47.60
2022-12-09T00:06:50.567Z,47.50
2022-12-09T00:08:53.646Z,47.50
2022-12-09T00:10:55.693Z,47.60
2022-12-09T00:12:57.691Z,47.50
2022-12-09T00:14:59.494Z,47.50
2022-12-09T00:17:01.807Z,47.50
2022-12-09T00:19:03.967Z,47.50
2022-12-09T00:21:21.145Z,47.50
2022-12-09T00:23:23.002Z,47.60
2022-12-09T00:25:25.060Z,47.60
2022-12-09T00:27:26.923Z,47.60
2022-12-09T00:29:32.851Z,47.50
2022-12-09T00:31:35.838Z,47.50
2022-12-09T00:33:37.791Z,47.50
2022-12-09T00:35:39.635Z,47.50
2022-12-09T00:37:41.732Z,47.50
2022-12-09T00:39:43.962Z,47.50
2022-12-09T00:41:46.554Z,47.50
2022-12-09T00:43:48.548Z,47.50
2022-12-09T00:45:50.702Z,47.50
2022-12-09T00:47:52.712Z,47.50
2022-12-09T00:49:55.091Z,47.50
2022-12-09T00:51:57.124Z,47.60
2022-12-09T00:54:07.614Z,47.60
2022-12-09T00:56:10.550Z,47.60
2022-12-09T00:58:13.424Z,47.60
2022-12-09T01:00:15.688Z,47.60
2022-12-09T01:02:18.449Z,47.50
2022-12-09T01:04:20.666Z,47.50
2022-12-09T01:06:24.998Z,47.50
2022-12-09T01:08:29.990Z,47.50
2022-12-09T01:10:33.586Z,47.50
2022-12-09T01:12:39.480Z,47.60
2022-12-09T01:14:41.340Z,47.50
2022-12-09T01:16:43.428Z,47.50
2022-12-09T01:18:45.729Z,47.50
2022-12-09T01:20:55.708Z,47.50
2022-12-09T01:23:18.407Z,47.60
2022-12-09T01:25:20.403Z,47.60
2022-12-09T01:27:31.288Z,47.50
2022-12-09T01:29:33.948Z,47.60
2022-12-09T01:31:36.799Z,47.70
2022-12-09T01:33:39.957Z,47.60
2022-12-09T01:35:44.760Z,47.70
2022-12-09T01:37:46.934Z,47.60
2022-12-09T01:39:48.955Z,47.60
2022-12-09T01:41:54.287Z,47.60
2022-12-09T01:44:08.764Z,47.50
2022-12-09T01:46:11.339Z,47.50
2022-12-09T01:48:16.670Z,47.60
2022-12-09T01:50:24.851Z,47.50
2022-12-09T01:52:29.740Z,47.60
2022-12-09T01:54:32.058Z,47.60
2022-12-09T01:56:43.491Z,47.50
2022-12-09T01:58:49.584Z,47.60
2022-12-09T02:00:54.064Z,47.50
2022-12-09T02:02:57.321Z,47.70
2022-12-09T02:05:03.423Z,47.60
2022-12-09T02:07:06.760Z,47.60
2022-12-09T02:09:10.390Z,47.60
2022-12-09T02:11:25.500Z,47.60
2022-12-09T02:14:07.201Z,47.50
2022-12-09T02:16:10.362Z,47.40
2022-12-09T02:18:24.656Z,47.40
2022-12-09T02:20:27.572Z,47.40
2022-12-09T02:22:32.422Z,47.30
2022-12-09T02:24:49.848Z,47.30
2022-12-09T02:27:05.646Z,47.90
2022-12-09T02:29:26.468Z,47.40
2022-12-09T02:31:41.281Z,47.50
2022-12-09T02:34:05.048Z,47.50
2022-12-09T02:36:14.537Z,47.50
2022-12-09T02:38:22.768Z,47.50
2022-12-09T02:40:36.227Z,47.50
2022-12-09T02:42:39.299Z,47.50
2022-12-09T02:44:42.765Z,47.50
2022-12-09T02:46:46.782Z,47.50
2022-12-09T02:48:53.558Z,47.50
2022-12-09T02:50:56.866Z,47.60
2022-12-09T02:53:00.659Z,47.60
2022-12-09T02:55:07.087Z,47.60
2022-12-09T02:57:12.919Z,47.60
2022-12-09T02:59:15.306Z,47.50
2022-12-09T03:01:24.891Z,47.50
2022-12-09T03:03:28.393Z,47.60
2022-12-09T03:05:33.021Z,47.50
2022-12-09T03:07:55.279Z,47.60
2022-12-09T03:10:07.592Z,47.70
2022-12-09T03:12:11.081Z,48.10
2022-12-09T03:14:21.428Z,47.50
2022-12-09T03:16:44.322Z,47.60
2022-12-09T03:18:48.573Z,47.60
2022-12-09T03:20:50.493Z,47.60
2022-12-09T03:22:55.966Z,47.60
2022-12-09T03:25:10.380Z,47.50
2022-12-09T03:27:13.887Z,47.60
2022-12-09T03:29:20.036Z,47.50
2022-12-09T03:31:23.188Z,47.50
2022-12-09T03:33:25.314Z,47.50
2022-12-09T03:35:30.007Z,47.50
2022-12-09T03:37:32.924Z,47.60
2022-12-09T03:39:36.381Z,47.60
2022-12-09T03:41:42.202Z,47.60
2022-12-09T03:43:46.830Z,47.50
2022-12-09T03:45:48.960Z,47.60
2022-12-09T03:47:51.654Z,47.60
2022-12-09T03:49:54.188Z,47.60
2022-12-09T03:52:01.016Z,47.60
2022-12-09T03:54:09.372Z,47.60
2022-12-09T03:56:14.309Z,47.60
2022-12-09T03:58:17.298Z,47.60
2022-12-09T04:00:19.535Z,47.60
2022-12-09T04:02:22.235Z,47.60
2022-12-09T04:04:24.382Z,47.60
2022-12-09T04:06:26.478Z,47.60
2022-12-09T04:08:28.269Z,47.60
2022-12-09T04:10:30.535Z,47.60
2022-12-09T04:12:32.730Z,47.60
2022-12-09T04:14:34.587Z,47.50
2022-12-09T04:16:36.446Z,47.50
2022-12-09T04:18:38.425Z,47.40
2022-12-09T04:20:40.457Z,47.40
2022-12-09T04:22:42.308Z,47.50
2022-12-09T04:24:44.150Z,47.50
2022-12-09T04:26:46.010Z,47.50
2022-12-09T04:28:48.087Z,47.50
2022-12-09T04:30:49.985Z,47.50
2022-12-09T04:32:51.849Z,47.50
2022-12-09T04:34:53.766Z,47.50
2022-12-09T04:36:55.623Z,47.50
2022-12-09T04:38:57.752Z,47.50
2022-12-09T04:41:03.331Z,47.50
2022-12-09T04:43:05.252Z,47.50
2022-12-09T04:45:07.763Z,47.50
2022-12-09T04:47:09.862Z,47.50
2022-12-09T04:49:11.921Z,47.50
2022-12-09T04:51:14.522Z,47.60
2022-12-09T04:53:16.877Z,47.60
2022-12-09T04:55:18.788Z,47.60
2022-12-09T04:57:20.820Z,47.60
2022-12-09T04:59:23.003Z,47.60
2022-12-09T05:01:30.164Z,47.60
2022-12-09T05:03:33.094Z,47.60
2022-12-09T05:05:35.515Z,47.60
2022-12-09T05:07:38.019Z,47.60
2022-12-09T05:09:40.342Z,47.60
2022-12-09T05:11:42.260Z,47.50
2022-12-09T05:13:44.745Z,47.50
2022-12-09T05:15:47.001Z,47.40
2022-12-09T05:17:49.170Z,47.40
2022-12-09T05:19:51.489Z,47.40
2022-12-09T05:21:53.572Z,47.40
2022-12-09T05:23:55.798Z,47.50
2022-12-09T05:25:57.780Z,47.40
2022-12-09T05:27:59.976Z,47.50
2022-12-09T05:30:01.899Z,47.50
2022-12-09T05:32:04.447Z,47.50
2022-12-09T05:34:06.424Z,47.50
2022-12-09T05:36:11.825Z,47.60
2022-12-09T05:38:14.049Z,47.60
2022-12-09T05:40:17.232Z,47.60
2022-12-09T05:42:19.509Z,47.60
2022-12-09T05:44:21.590Z,47.60
2022-12-09T05:46:23.629Z,47.60
2022-12-09T05:48:25.815Z,47.60
2022-12-09T05:50:27.953Z,47.60
2022-12-09T05:52:30.225Z,47.60
2022-12-09T05:54:32.359Z,47.60
2022-12-09T05:56:34.631Z,47.60
2022-12-09T05:58:36.828Z,47.60
2022-12-09T06:00:38.820Z,47.60
2022-12-09T06:02:40.975Z,47.60
2022-12-09T06:04:43.133Z,47.60
2022-12-09T06:06:45.942Z,47.60
2022-12-09T06:08:48.667Z,47.70
2022-12-09T06:10:50.870Z,47.60
2022-12-09T06:12:56.605Z,47.60
2022-12-09T06:14:58.424Z,47.50
2022-12-09T06:17:00.434Z,47.50
2022-12-09T06:19:03.502Z,47.50
2022-12-09T06:21:06.410Z,47.50
2022-12-09T06:23:08.565Z,47.60
2022-12-09T06:25:10.893Z,48.20
2022-12-09T06:27:13.490Z,47.50
2022-12-09T06:29:15.803Z,47.50
2022-12-09T06:31:18.144Z,47.50
2022-12-09T06:33:52.416Z,47.60
2022-12-09T06:35:42.576Z,47.60
2022-12-09T06:37:44.835Z,47.60
2022-12-09T06:39:47.242Z,47.60
2022-12-09T06:41:49.250Z,47.60
2022-12-09T06:43:51.371Z,47.50
2022-12-09T06:45:53.627Z,47.50
2022-12-09T06:47:55.802Z,47.50
2022-12-09T06:50:04.357Z,47.50
2022-12-09T06:52:08.544Z,47.50
2022-12-09T06:54:10.505Z,47.50
2022-12-09T06:56:13.501Z,47.60
2022-12-09T06:58:15.638Z,47.60
2022-12-09T07:00:17.739Z,47.50
2022-12-09T07:02:20.157Z,47.60
2022-12-09T07:04:23.035Z,47.60
2022-12-09T07:06:25.238Z,47.60
2022-12-09T07:08:27.664Z,47.60
2022-12-09T07:10:29.948Z,47.60
2022-12-09T07:12:32.155Z,47.50
2022-12-09T07:14:34.387Z,47.50
2022-12-09T07:16:36.674Z,47.50
2022-12-09T07:18:39.027Z,47.50
2022-12-09T07:20:41.031Z,47.50
2022-12-09T07:22:43.161Z,47.50
2022-12-09T07:24:45.199Z,47.50
2022-12-09T07:26:47.135Z,47.50
2022-12-09T07:28:51.196Z,47.50
2022-12-09T07:30:53.211Z,47.50
2022-12-09T07:32:55.278Z,47.50
2022-12-09T07:34:57.329Z,48.10
2022-12-09T07:36:59.840Z,47.50
2022-12-09T07:39:04.052Z,47.50
2022-12-09T07:41:06.994Z,47.60
2022-12-09T07:43:09.458Z,47.60
2022-12-09T07:45:11.640Z,47.60
2022-12-09T07:47:14.172Z,47.60
2022-12-09T07:49:16.159Z,47.50
2022-12-09T07:51:18.736Z,47.50
2022-12-09T07:53:20.592Z,47.60
2022-12-09T07:55:22.843Z,47.60
2022-12-09T07:57:24.998Z,47.60
2022-12-09T07:59:27.171Z,47.60
2022-12-09T08:01:30.251Z,47.60
2022-12-09T08:03:32.614Z,47.60
2022-12-09T08:05:34.735Z,47.60
2022-12-09T08:07:42.389Z,47.60
2022-12-09T08:09:46.453Z,47.60
2022-12-09T08:11:49.557Z,47.60
2022-12-09T08:13:52.358Z,47.60
2022-12-09T08:15:54.666Z,47.60
2022-12-09T08:17:56.766Z,47.60
2022-12-09T08:19:59.526Z,48.20
2022-12-09T08:22:02.300Z,47.60
2022-12-09T08:24:04.969Z,47.60
2022-12-09T08:26:06.946Z,47.70
2022-12-09T08:28:09.412Z,47.70
2022-12-09T08:30:12.278Z,47.60
2022-12-09T08:32:16.375Z,47.60
2022-12-09T08:34:19.037Z,47.60
2022-12-09T08:36:22.372Z,47.60
2022-12-09T08:38:24.567Z,47.70
2022-12-09T08:40:27.066Z,47.60
2022-12-09T08:42:30.488Z,47.60
2022-12-09T08:44:32.493Z,47.60
2022-12-09T08:46:35.475Z,47.60
2022-12-09T08:48:38.283Z,47.60
2022-12-09T08:50:40.820Z,47.60
2022-12-09T08:52:43.012Z,47.60
2022-12-09T08:54:45.118Z,47.60
2022-12-09T08:56:48.505Z,47.60
2022-12-09T08:58:51.184Z,47.70
2022-12-09T09:00:53.538Z,47.60
2022-12-09T09:02:55.689Z,47.60
2022-12-09T09:04:58.407Z,47.70
2022-12-09T09:07:00.471Z,47.80
2022-12-09T09:09:03.104Z,47.80
2022-12-09T09:11:08.662Z,48.00
2022-12-09T09:13:11.535Z,48.40
2022-12-09T09:15:14.298Z,48.10
2022-12-09T09:17:17.023Z,48.10
2022-12-09T09:19:20.774Z,48.10
2022-12-09T09:21:24.258Z,48.10
2022-12-09T09:23:26.883Z,48.10
2022-12-09T09:25:29.973Z,48.20
2022-12-09T09:27:32.227Z,48.30
2022-12-09T09:29:34.909Z,48.40
2022-12-09T09:31:37.321Z,48.40
2022-12-09T09:33:39.726Z,48.50
2022-12-09T09:35:41.701Z,48.50
2022-12-09T09:37:44.039Z,48.80
2022-12-09T09:39:46.592Z,48.90
2022-12-09T09:42:09.037Z,48.90
2022-12-09T09:44:30.439Z,48.90
2022-12-09T09:46:32.574Z,49.00
2022-12-09T09:48:38.388Z,49.00
2022-12-09T09:50:51.141Z,48.90
2022-12-09T09:52:54.542Z,48.90
2022-12-09T09:54:57.113Z,49.00
2022-12-09T09:57:07.832Z,49.00
2022-12-09T09:59:16.965Z,48.90
2022-12-09T10:01:20.112Z,48.80
2022-12-09T10:03:37.157Z,48.90
2022-12-09T10:05:56.145Z,49.00
2022-12-09T10:08:36.990Z,49.10
2022-12-09T10:10:47.419Z,49.20
2022-12-09T10:13:00.735Z,49.10
2022-12-09T10:15:13.394Z,49.60
2022-12-09T10:17:25.960Z,49.10
2022-12-09T10:19:36.959Z,49.10
2022-12-09T10:21:42.375Z,49.10
2022-12-09T10:23:45.194Z,49.10
2022-12-09T10:26:14.139Z,49.10
2022-12-09T10:28:16.225Z,49.20
2022-12-09T10:30:19.081Z,49.30
2022-12-09T10:32:22.473Z,50.10
2022-12-09T10:34:25.703Z,49.70
2022-12-09T10:36:35.335Z,49.60
2022-12-09T10:38:40.523Z,49.50
2022-12-09T10:40:45.289Z,49.50
2022-12-09T10:42:49.170Z,49.40
2022-12-09T10:45:03.819Z,49.40
2022-12-09T10:47:07.284Z,49.60
2022-12-09T10:49:16.767Z,49.50
2022-12-09T10:51:24.040Z,49.70
2022-12-09T10:53:28.019Z,49.80
2022-12-09T10:55:34.299Z,49.70
2022-12-09T10:57:36.276Z,49.60
2022-12-09T10:59:38.836Z,49.70
2022-12-09T11:01:49.707Z,49.70
2022-12-09T11:03:52.869Z,48.50
2022-12-09T11:06:01.128Z,48.80
2022-12-09T11:08:03.991Z,49.30
2022-12-09T11:10:15.368Z,49.60
2022-12-09T11:12:21.177Z,49.80
2022-12-09T11:14:31.940Z,49.00
2022-12-09T11:16:34.606Z,48.90
2022-12-09T11:18:47.357Z,48.70
2022-12-09T11:21:18.407Z,48.80
2022-12-09T11:23:21.343Z,49.20
2022-12-09T11:25:25.813Z,48.90
2022-12-09T11:27:33.280Z,49.00
2022-12-09T11:29:37.820Z,49.30
2022-12-09T11:31:41.077Z,49.30
2022-12-09T11:33:54.277Z,49.30
2022-12-09T11:38:33.271Z,49.30
2022-12-09T11:40:35.280Z,49.40
2022-12-09T11:42:37.159Z,49.90
2022-12-09T11:44:42.491Z,49.30
2022-12-09T11:46:44.398Z,49.40
2022-12-09T11:48:53.764Z,49.30
2022-12-09T11:50:55.972Z,49.40
2022-12-09T11:53:06.986Z,49.30
2022-12-09T11:55:11.532Z,49.40
2022-12-09T11:57:33.842Z,49.50
2022-12-09T11:59:40.063Z,49.40
2022-12-09T12:01:48.235Z,49.60
2022-12-09T12:04:00.085Z,49.60
2022-12-09T12:06:04.143Z,49.60
2022-12-09T12:08:06.199Z,49.60
2022-12-09T12:10:37.621Z,49.60
2022-12-09T12:12:45.802Z,49.60
2022-12-09T12:14:47.681Z,49.60
2022-12-09T12:16:55.468Z,49.60
2022-12-09T12:19:01.836Z,49.60
2022-12-09T12:21:06.862Z,49.60
2022-12-09T12:23:14.624Z,49.60
2022-12-09T12:25:24.961Z,49.40
2022-12-09T12:27:34.846Z,49.30
2022-12-09T12:29:43.159Z,49.90
2022-12-09T12:32:00.420Z,49.70
2022-12-09T12:34:25.329Z,49.70
2022-12-09T12:36:36.676Z,49.60
2022-12-09T12:39:01.483Z,49.60
2022-12-09T12:41:13.422Z,49.60
2022-12-09T12:43:25.947Z,49.60
2022-12-09T12:45:32.026Z,49.70
2022-12-09T12:47:39.895Z,49.70
2022-12-09T12:49:47.441Z,49.70
2022-12-09T12:52:02.150Z,49.60
2022-12-09T12:54:12.490Z,49.60
2022-12-09T12:56:15.846Z,49.60
2022-12-09T12:58:17.762Z,49.60
2022-12-09T13:00:24.445Z,48.80
2022-12-09T13:02:38.360Z,49.40
2022-12-09T13:04:47.977Z,49.70
2022-12-09T13:07:05.946Z,49.80
2022-12-09T13:09:18.512Z,49.70
2022-12-09T13:11:23.715Z,49.60
2022-12-09T13:13:42.482Z,49.60
2022-12-09T13:15:46.563Z,49.50
2022-12-09T13:17:48.837Z,49.50
2022-12-09T13:19:52.123Z,49.60
2022-12-09T13:21:54.147Z,49.60
2022-12-09T13:24:14.760Z,49.60
2022-12-09T13:26:22.725Z,49.60
2022-12-09T13:28:33.753Z,49.60
2022-12-09T13:30:54.616Z,49.60
2022-12-09T13:33:15.667Z,49.50
2022-12-09T13:35:35.811Z,49.50
2022-12-09T13:37:37.587Z,49.50
2022-12-09T13:39:39.467Z,49.50
2022-12-09T13:41:42.502Z,49.50
2022-12-09T13:43:45.525Z,49.60
2022-12-09T13:45:53.140Z,49.50
2022-12-09T13:47:56.166Z,49.60
2022-12-09T13:49:59.598Z,49.60
2022-12-09T13:52:01.627Z,49.50
2022-12-09T13:54:04.534Z,49.50
2022-12-09T13:56:26.587Z,49.50
2022-12-09T13:58:47.083Z,49.60
2022-12-09T14:01:07.806Z,49.60
2022-12-09T14:03:27.748Z,49.70
2022-12-09T14:05:31.261Z,49.70
2022-12-09T14:07:39.807Z,49.70
2022-12-09T14:09:41.813Z,49.60
2022-12-09T14:11:45.006Z,49.60
2022-12-09T14:13:47.066Z,49.60
2022-12-09T14:16:08.924Z,49.70
2022-12-09T14:18:27.814Z,50.00
2022-12-09T14:20:31.396Z,50.30
2022-12-09T14:22:34.619Z,49.90
2022-12-09T14:24:36.618Z,50.10
2022-12-09T14:26:38.579Z,50.10
2022-12-09T14:28:50.705Z,50.30
2022-12-09T14:30:52.634Z,50.30
2022-12-09T14:32:55.047Z,50.90
2022-12-09T14:35:12.011Z,50.20
2022-12-09T14:37:20.226Z,50.30
2022-12-09T14:39:26.323Z,50.20
2022-12-09T14:41:34.937Z,50.40
2022-12-09T14:44:02.863Z,50.40
2022-12-09T14:46:06.159Z,50.40
2022-12-09T14:48:14.193Z,50.40
2022-12-09T14:50:17.852Z,50.90
2022-12-09T14:52:30.675Z,51.30
2022-12-09T14:54:36.782Z,51.30
2022-12-09T14:56:38.771Z,51.50
2022-12-09T14:58:40.732Z,51.90
2022-12-09T15:00:42.616Z,51.80
2022-12-09T15:03:23.099Z,52.00
2022-12-09T15:05:16.596Z,52.10
2022-12-09T15:07:23.188Z,52.10
2022-12-09T15:09:25.007Z,52.00
2022-12-09T15:11:37.339Z,52.10
2022-12-09T15:13:41.719Z,52.20
2022-12-09T15:15:43.562Z,52.20
2022-12-09T15:17:45.481Z,52.10
2022-12-09T15:20:02.608Z,52.20
2022-12-09T15:22:04.486Z,52.20
2022-12-09T15:24:06.343Z,52.10
2022-12-09T15:26:18.260Z,52.10
2022-12-09T15:28:26.671Z,52.10
2022-12-09T15:30:32.877Z,52.00
2022-12-09T15:32:38.653Z,52.00
2022-12-09T15:34:40.480Z,51.90
2022-12-09T15:36:43.852Z,51.90
2022-12-09T15:38:49.736Z,51.90
2022-12-09T15:40:54.008Z,51.90
2022-12-09T15:42:59.396Z,51.90
2022-12-09T15:45:08.265Z,51.90
2022-12-09T15:47:24.542Z,51.90
2022-12-09T15:49:28.752Z,52.00
2022-12-09T15:51:31.337Z,51.90
2022-12-09T15:53:35.912Z,51.90
2022-12-09T15:55:40.810Z,51.80
2022-12-09T15:57:42.769Z,51.80
2022-12-09T15:59:53.920Z,51.80
2022-12-09T16:01:58.292Z,51.80
2022-12-09T16:04:01.125Z,51.80
2022-12-09T16:06:09.060Z,50.80
2022-12-09T16:08:11.202Z,51.10
2022-12-09T16:10:14.433Z,51.80
2022-12-09T16:12:26.250Z,51.90
2022-12-09T16:14:40.633Z,52.00
2022-12-09T16:16:57.494Z,52.00
2022-12-09T16:18:59.379Z,51.90
2022-12-09T16:21:21.004Z,51.90
2022-12-09T16:23:25.151Z,51.90
2022-12-09T16:25:28.332Z,51.80
2022-12-09T16:27:34.178Z,51.70
2022-12-09T16:29:36.826Z,51.80
2022-12-09T16:31:38.688Z,51.90
2022-12-09T16:33:46.830Z,51.80
2022-12-09T16:36:01.625Z,51.90
2022-12-09T16:38:11.097Z,52.00
2022-12-09T16:40:33.094Z,51.90
2022-12-09T16:42:39.406Z,52.00
2022-12-09T16:44:42.568Z,52.00
2022-12-09T16:46:44.458Z,51.90
2022-12-09T16:48:48.057Z,51.90
2022-12-09T16:50:54.027Z,51.90
2022-12-09T16:52:56.115Z,52.10
2022-12-09T16:55:01.249Z,52.10
2022-12-09T16:57:03.120Z,52.10
2022-12-09T16:59:05.139Z,52.20
2022-12-09T17:01:11.727Z,52.20
2022-12-09T17:03:19.692Z,52.30
2022-12-09T17:05:21.459Z,52.30
2022-12-09T17:07:23.296Z,52.30
2022-12-09T17:09:25.049Z,52.30
2022-12-09T17:11:26.991Z,52.20
2022-12-09T17:13:28.758Z,52.20
2022-12-09T17:15:30.569Z,52.20
2022-12-09T17:17:32.416Z,52.30
2022-12-09T17:19:35.244Z,52.30
2022-12-09T17:21:37.023Z,52.50
2022-12-09T17:23:40.327Z,52.40
2022-12-09T17:25:42.228Z,52.50
2022-12-09T17:27:44.058Z,52.40
2022-12-09T17:29:45.821Z,52.50
2022-12-09T17:31:47.643Z,52.40
2022-12-09T17:33:49.764Z,52.40
2022-12-09T17:35:52.075Z,52.40
2022-12-09T17:37:53.832Z,52.40
2022-12-09T17:40:01.696Z,52.50
2022-12-09T17:42:05.390Z,52.40
2022-12-09T17:44:07.391Z,52.40
2022-12-09T17:46:09.890Z,52.50
2022-12-09T17:48:11.851Z,52.50
2022-12-09T17:50:13.622Z,52.50
2022-12-09T17:52:15.447Z,52.40
2022-12-09T17:54:17.412Z,52.30
2022-12-09T17:56:20.702Z,52.40
2022-12-09T17:58:22.501Z,52.90
2022-12-09T18:00:24.532Z,52.20
2022-12-09T18:02:26.327Z,52.20
2022-12-09T18:04:28.155Z,51.50
2022-12-09T18:06:32.199Z,51.30
2022-12-09T18:08:34.197Z,51.30
2022-12-09T18:10:36.008Z,51.10
2022-12-09T18:12:42.356Z,51.40
2022-12-09T18:14:44.111Z,51.90
2022-12-09T18:16:46.042Z,51.50
2022-12-09T18:18:47.971Z,50.10
2022-12-09T18:20:49.825Z,52.00
2022-12-09T18:22:56.148Z,52.80
2022-12-09T18:24:58.421Z,52.80
2022-12-09T18:29:31.240Z,53.60
2022-12-09T20:55:19.307Z,51.90
2022-12-09T20:57:21.204Z,51.70
2022-12-09T20:59:25.680Z,51.90
2022-12-09T21:01:32.261Z,51.90
2022-12-09T21:03:34.554Z,51.90
2022-12-09T21:05:36.399Z,52.00
2022-12-09T21:07:38.231Z,51.90
2022-12-09T21:09:40.168Z,52.00
2022-12-09T21:11:42.063Z,52.00
2022-12-09T21:13:45.517Z,52.00
2022-12-09T21:15:47.506Z,52.00
2022-12-09T21:17:49.496Z,52.00
2022-12-09T21:19:51.335Z,51.90
2022-12-09T21:21:53.356Z,51.60
2022-12-09T21:23:55.251Z,51.90
2022-12-09T21:26:01.920Z,52.00
2022-12-09T21:28:03.962Z,52.00
2022-12-09T21:30:07.023Z,51.80
2022-12-09T21:32:09.047Z,51.70
2022-12-09T21:34:10.920Z,51.60
2022-12-09T21:36:14.939Z,51.60
2022-12-09T21:38:16.874Z,51.70
2022-12-09T21:40:18.747Z,51.70
2022-12-09T21:42:20.745Z,51.80
2022-12-09T21:44:22.827Z,51.80
2022-12-09T21:46:29.268Z,51.70
2022-12-09T21:48:31.284Z,51.60
2022-12-09T21:50:33.192Z,51.70
2022-12-09T21:52:35.004Z,51.70
2022-12-09T21:54:36.994Z,51.70
2022-12-09T21:56:39.107Z,51.70
2022-12-09T21:58:41.349Z,51.70
2022-12-09T22:00:43.239Z,51.70
2022-12-09T22:02:47.657Z,51.70
2022-12-09T22:04:49.796Z,51.60
2022-12-09T22:06:53.001Z,51.70
2022-12-09T22:08:54.888Z,51.80
2022-12-09T22:10:56.731Z,51.70
2022-12-09T22:12:58.700Z,51.60
2022-12-09T22:15:01.286Z,51.70
2022-12-09T22:17:03.226Z,51.70
2022-12-09T22:19:05.999Z,51.70
2022-12-09T22:21:26.570Z,51.80
2022-12-09T22:23:29.252Z,51.90
2022-12-09T22:25:31.208Z,51.80
2022-12-09T22:27:33.322Z,51.80
2022-12-09T22:29:35.294Z,52.00
2022-12-09T22:31:38.453Z,51.90
2022-12-09T22:33:40.648Z,52.00
2022-12-09T22:35:42.492Z,51.90
2022-12-09T22:37:44.529Z,51.80
2022-12-09T22:39:46.478Z,51.70
2022-12-09T22:41:48.371Z,51.80
2022-12-09T22:43:51.663Z,51.70
2022-12-09T22:45:53.613Z,51.70
2022-12-09T22:47:55.512Z,51.70
2022-12-09T22:49:57.347Z,51.60
2022-12-09T22:52:00.758Z,51.70
2022-12-09T22:54:04.303Z,51.60
2022-12-09T22:56:06.655Z,51.70
2022-12-09T22:58:08.740Z,51.70
2022-12-09T23:00:11.026Z,51.80
2022-12-09T23:02:12.975Z,51.90
2022-12-09T23:04:16.211Z,51.80
2022-12-09T23:06:18.058Z,51.70
2022-12-09T23:08:20.049Z,51.60
2022-12-09T23:10:21.993Z,51.70
2022-12-09T23:12:25.244Z,51.80
2022-12-09T23:14:27.294Z,51.70
2022-12-09T23:16:29.227Z,51.80
2022-12-09T23:18:31.644Z,51.70
2022-12-09T23:20:33.496Z,51.70
2022-12-09T23:22:38.251Z,52.00
2022-12-09T23:24:40.110Z,51.30
2022-12-09T23:26:42.286Z,51.30
2022-12-09T23:28:45.390Z,51.60
2022-12-09T23:30:47.299Z,51.60
2022-12-09T23:32:49.340Z,51.60
2022-12-09T23:34:51.208Z,51.50
2022-12-09T23:36:53.158Z,51.50
2022-12-09T23:38:54.974Z,51.60
2022-12-09T23:40:59.919Z,51.60
2022-12-09T23:43:02.158Z,51.60
2022-12-09T23:45:04.407Z,51.60
2022-12-09T23:47:06.223Z,51.60
2022-12-09T23:49:08.264Z,51.50
2022-12-09T23:51:11.377Z,51.60
2022-12-09T23:53:13.385Z,51.70
2022-12-09T23:55:15.296Z,51.60
2022-12-09T23:57:19.929Z,51.60
2022-12-09T23:59:22.498Z,51.50
